Time;durP1;ratioP1;P1;durP2;ratioP2;P2;SDS_P1;SDS_P2;PMS_P1;PMS_P2;Temp;Humidity;BMP_temperature;BMP_pressure;BME280_temperature;BME280_humidity;BME280_pressure;Samples;Min_cycle;Max_cycle;Signal;HPM_P1;HPM_P2
2021/04/09 00:00:29;;;;;;;;;;;8.30;99.90;;;8.47;65.70;101418.09;5073050;28;20374;-70
2021/04/09 00:02:59;;;;;;;;;;;8.30;99.90;;;8.43;65.72;101426.81;5072951;28;19942;-70
2021/04/09 00:05:27;;;;;;;;;;;8.30;99.90;;;8.34;65.48;101418.81;5073234;28;19974;-70
2021/04/09 00:07:56;;;;;;;;;;;8.20;99.90;;;8.41;65.78;101424.19;5072934;28;19970;-70
2021/04/09 00:10:26;;;;;;;;;;;8.20;99.90;;;8.38;66.22;101431.16;5071647;28;19920;-70
2021/04/09 00:12:53;;;;;;;;;;;8.20;99.90;;;8.42;66.20;101428.56;5073348;28;20030;-70
2021/04/09 00:15:21;;;;;;;;;;;8.20;99.90;;;8.28;66.02;101402.91;5072852;28;20394;-70
2021/04/09 00:17:48;;;;;;;;;;;8.20;99.90;;;8.39;66.02;101422.38;5072760;28;19924;-70
2021/04/09 00:20:18;;;;;;;;;;;8.20;99.90;;;8.37;66.12;101414.47;5073022;28;19927;-70
2021/04/09 00:22:45;;;;;;;;;;;8.20;99.90;;;8.37;66.04;101411.81;5072798;28;19921;-70
2021/04/09 00:25:15;;;;;;;;;;;8.20;99.90;;;8.37;65.77;101413.56;5072779;28;19977;-71
2021/04/09 00:27:42;;;;;;;;;;;8.10;99.90;;;8.31;65.76;101419.66;5072744;28;19920;-70
2021/04/09 00:30:17;;;;;;;;;;;8.10;99.90;;;8.32;66.23;101418.78;5071515;28;19929;-70
2021/04/09 00:32:44;;;;;;;;;;;8.10;99.90;;;8.27;65.71;101420.47;5073120;28;19944;-70
2021/04/09 00:35:12;;;;;;;;;;;8.10;99.90;;;8.22;65.85;101390.50;5072774;28;19955;-70
2021/04/09 00:37:40;;;;;;;;;;;8.10;99.90;;;8.28;65.93;101413.47;5072749;28;19924;-70
2021/04/09 00:40:08;;;;;;;;;;;8.10;99.90;;;8.31;66.28;101408.22;5072766;28;19924;-70
2021/04/09 00:42:36;;;;;;;;;;;8.10;99.90;;;8.37;66.05;101413.56;5072571;28;19943;-70
2021/04/09 00:45:04;;;;;;;;;;;8.10;99.90;;;8.30;66.08;101409.09;5074314;28;19959;-70
2021/04/09 00:47:32;;;;;;;;;;;8.10;99.90;;;8.31;66.22;101405.56;5076742;28;20325;-70
2021/04/09 00:49:59;;;;;;;;;;;8.10;99.90;;;8.40;65.50;101403.09;5076686;28;19929;-70
2021/04/09 00:52:30;;;;;;;;;;;8.20;99.90;;;8.36;65.33;101398.63;5075135;28;20270;-71
2021/04/09 00:54:58;;;;;;;;;;;8.10;99.90;;;8.29;64.78;101396.75;5076669;28;19921;-71
2021/04/09 00:57:26;;;;;;;;;;;8.10;99.90;;;8.34;65.08;101395.09;5076552;28;19978;-70
2021/04/09 00:59:54;;;;;;;;;;;8.10;99.90;;;8.37;64.87;101395.13;5076673;28;19924;-71
2021/04/09 01:02:22;;;;;;;;;;;8.10;99.90;;;8.33;64.59;101390.66;5076251;28;20352;-70
2021/04/09 01:04:50;;;;;;;;;;;8.10;99.90;;;8.36;64.61;101386.34;5076244;28;19978;-70
2021/04/09 01:07:18;;;;;;;;;;;8.10;99.90;;;7.63;64.24;101252.75;5076178;28;19920;-70
2021/04/09 01:09:45;;;;;;;;;;;8.20;99.90;;;8.34;64.33;101382.81;5075796;28;19970;-70
2021/04/09 01:12:13;;;;;;;;;;;8.10;99.90;;;8.39;64.18;101390.75;5075846;28;19925;-70
2021/04/09 01:14:40;;;;;;;;;;;8.10;99.90;;;8.49;63.96;101384.72;5075779;28;20641;-70
2021/04/09 01:17:14;;;;;;;;;;;8.20;99.90;;;8.46;63.71;101382.94;5075679;28;19962;-70
2021/04/09 01:20:18;;;;;;;;;;;8.20;99.90;;;8.41;64.09;101381.13;5075921;28;19955;-70
2021/04/09 01:22:48;;;;;;;;;;;8.20;99.90;;;8.33;64.25;101369.59;5060373;28;19920;-71
2021/04/09 01:25:51;;;;;;;;;;;8.10;99.90;;;8.39;64.12;101370.56;5076047;28;19924;-70
2021/04/09 01:28:21;;;;;;;;;;;8.10;99.90;;;8.40;63.98;101382.00;5075745;28;19920;-70
2021/04/09 01:31:03;;;;;;;;;;;8.20;99.90;;;8.39;63.95;101370.56;5075854;28;20034;-70
2021/04/09 01:33:34;;;;;;;;;;;8.20;99.90;;;8.34;64.05;101364.34;5075875;28;19924;-70
2021/04/09 01:36:07;;;;;;;;;;;8.10;99.90;;;8.33;64.51;101366.94;5075783;28;19928;-70
2021/04/09 01:38:37;;;;;;;;;;;8.10;99.90;;;8.35;64.10;101373.13;5074940;28;19926;-70
2021/04/09 01:41:07;;;;;;;;;;;8.10;99.90;;;8.26;64.71;101350.19;5075466;28;20290;-70
2021/04/09 01:43:35;;;;;;;;;;;8.10;99.90;;;8.36;64.41;101359.09;5075656;28;19920;-70
2021/04/09 01:46:03;;;;;;;;;;;8.10;99.90;;;8.34;64.41;101361.72;5075641;28;19928;-70
2021/04/09 01:48:33;;;;;;;;;;;8.10;99.90;;;8.07;64.22;101312.13;5075540;28;19920;-70
2021/04/09 01:51:00;;;;;;;;;;;8.10;99.90;;;8.46;64.52;101363.63;5074186;28;19921;-71
2021/04/09 01:53:29;;;;;;;;;;;8.20;99.90;;;8.37;64.00;101355.59;5075515;28;20283;-70
2021/04/09 01:55:57;;;;;;;;;;;8.20;99.90;;;8.39;64.11;101353.84;5074018;28;20356;-71
2021/04/09 01:58:26;;;;;;;;;;;8.10;99.90;;;8.38;64.33;101346.81;5073644;28;19925;-70
2021/04/09 02:00:53;;;;;;;;;;;8.20;99.90;;;8.26;64.33;101336.13;5075446;28;19966;-71
2021/04/09 02:03:21;;;;;;;;;;;8.10;99.90;;;8.34;64.36;101347.66;5075425;28;19924;-70
2021/04/09 02:05:50;;;;;;;;;;;8.10;99.90;;;8.40;64.27;101343.31;5075147;28;19920;-71
2021/04/09 02:08:18;;;;;;;;;;;8.20;99.90;;;8.43;64.66;101348.66;5074984;28;20442;-70
2021/04/09 02:10:46;;;;;;;;;;;8.20;99.90;;;8.41;64.39;101341.56;5075228;28;19975;-71
2021/04/09 02:13:14;;;;;;;;;;;8.20;99.90;;;8.46;64.23;101342.53;5075073;28;19920;-71
2021/04/09 02:15:42;;;;;;;;;;;8.20;99.90;;;8.40;65.06;101345.09;5074892;28;19920;-70
2021/04/09 02:18:09;;;;;;;;;;;8.20;99.90;;;8.47;64.38;101333.75;5075117;28;19924;-70
2021/04/09 02:20:37;;;;;;;;;;;8.30;99.90;;;8.25;65.09;101305.34;5074765;28;20336;-70
2021/04/09 02:23:05;;;;;;;;;;;8.30;99.90;;;8.37;65.29;101343.28;5074955;28;19928;-71
2021/04/09 02:25:34;;;;;;;;;;;8.20;99.90;;;8.38;65.42;101331.00;5074858;28;20387;-71
2021/04/09 02:28:01;;;;;;;;;;;8.20;99.90;;;8.47;65.09;101332.00;5074951;28;19924;-70
2021/04/09 02:30:29;;;;;;;;;;;8.20;99.90;;;8.52;65.35;101332.03;5074364;28;20054;-70
2021/04/09 02:32:56;;;;;;;;;;;8.30;99.90;;;8.49;65.72;101326.75;5074625;28;19924;-70
2021/04/09 02:35:23;;;;;;;;;;;8.30;99.90;;;8.51;65.50;101325.00;5074430;28;20404;-70
2021/04/09 02:37:51;;;;;;;;;;;8.30;99.90;;;8.55;66.01;101316.25;5073393;28;19922;-70
2021/04/09 02:40:22;;;;;;;;;;;8.30;99.90;;;8.28;66.52;101308.03;5073330;28;19924;-70
2021/04/09 02:42:51;;;;;;;;;;;8.20;99.90;;;8.39;66.66;101316.94;5074478;28;19920;-71
2021/04/09 02:45:22;;;;;;;;;;;8.20;99.90;;;8.39;66.55;101306.41;5074348;28;19920;-70
2021/04/09 02:47:51;;;;;;;;;;;8.20;99.90;;;8.30;67.25;101301.94;5072944;28;19921;-70
2021/04/09 02:50:24;;;;;;;;;;;8.10;99.90;;;8.37;67.02;101305.50;5074394;28;19927;-70
2021/04/09 02:52:54;;;;;;;;;;;8.20;99.90;;;8.17;67.57;101279.78;5074384;28;19920;-70
2021/04/09 02:55:23;;;;;;;;;;;8.10;99.90;;;8.28;67.94;101302.78;5072915;28;19963;-71
2021/04/09 02:57:52;;;;;;;;;;;8.10;99.90;;;8.31;68.11;101308.97;5072870;28;19988;-70
2021/04/09 03:00:19;;;;;;;;;;;8.10;99.90;;;7.72;68.12;101189.69;5073980;28;19964;-70
2021/04/09 03:02:48;;;;;;;;;;;8.10;99.90;;;8.49;68.15;101297.75;5074430;28;19927;-70
2021/04/09 03:05:19;;;;;;;;;;;8.20;99.90;;;8.49;68.41;101295.09;5074126;28;19967;-71
2021/04/09 03:07:46;;;;;;;;;;;8.30;99.90;;;8.48;68.43;101294.22;5074113;28;19966;-71
2021/04/09 03:10:16;;;;;;;;;;;8.30;99.90;;;8.51;68.29;101291.63;5073904;28;19924;-71
2021/04/09 03:12:45;;;;;;;;;;;8.30;99.90;;;8.52;68.96;101292.47;5074054;28;20006;-70
2021/04/09 03:15:17;;;;;;;;;;;8.30;99.90;;;8.50;68.87;101284.56;5073991;28;19921;-70
2021/04/09 03:17:52;;;;;;;;;;;8.30;99.90;;;8.49;69.39;101279.28;5073844;28;19925;-71
2021/04/09 03:20:21;;;;;;;;;;;8.30;99.90;;;8.33;69.69;101286.16;5072552;28;20308;-70
2021/04/09 03:22:48;;;;;;;;;;;8.20;99.90;;;8.43;70.04;101284.50;5073734;28;20007;-70
2021/04/09 03:25:18;;;;;;;;;;;8.10;99.90;;;8.47;70.27;101283.66;5073429;28;19971;-71
2021/04/09 03:27:46;;;;;;;;;;;8.20;99.90;;;8.46;70.49;101272.22;5073611;28;20070;-70
2021/04/09 03:30:15;;;;;;;;;;;8.20;99.90;;;8.49;70.19;101267.00;5073572;28;19924;-71
2021/04/09 03:32:42;;;;;;;;;;;8.30;99.90;;;8.52;70.52;101258.22;5073471;28;19924;-70
2021/04/09 03:35:10;;;;;;;;;;;8.20;99.90;;;8.52;70.38;101264.38;5073534;28;19931;-70
2021/04/09 03:37:37;;;;;;;;;;;8.30;99.90;;;8.49;70.58;101258.19;5073369;28;19978;-70
2021/04/09 03:40:06;;;;;;;;;;;8.30;99.90;;;7.89;70.54;101142.47;5073269;28;19932;-70
2021/04/09 03:42:34;;;;;;;;;;;8.30;99.90;;;8.57;70.12;101254.78;5073411;28;19924;-70
2021/04/09 03:45:04;;;;;;;;;;;8.40;99.90;;;8.64;70.65;101261.88;5073442;28;19920;-71
2021/04/09 03:47:31;;;;;;;;;;;8.40;99.90;;;8.56;70.50;101254.75;5073507;28;19927;-70
2021/04/09 03:49:59;;;;;;;;;;;8.30;99.90;;;8.65;70.55;101263.63;5073272;28;19990;-70
2021/04/09 03:52:26;;;;;;;;;;;8.30;99.90;;;8.62;70.38;101254.81;5073036;28;19924;-70
2021/04/09 03:54:54;;;;;;;;;;;8.40;99.90;;;8.48;70.67;101241.50;5073544;28;19924;-70
2021/04/09 03:57:21;;;;;;;;;;;8.30;99.90;;;8.60;70.05;101259.19;5073371;28;19924;-70
2021/04/09 03:59:48;;;;;;;;;;;8.40;99.90;;;8.48;70.49;101254.66;5073212;28;19920;-71
2021/04/09 04:02:17;;;;;;;;;;;8.30;99.90;;;8.51;70.97;101253.81;5071832;28;20015;-70
2021/04/09 04:04:44;;;;;;;;;;;8.30;99.90;;;8.42;70.62;101238.78;5073052;28;20014;-71
2021/04/09 04:07:12;;;;;;;;;;;8.30;99.90;;;8.55;70.68;101248.63;5073191;28;19974;-70
2021/04/09 04:09:39;;;;;;;;;;;8.30;99.90;;;8.52;71.08;101247.66;5073009;28;19920;-70
2021/04/09 04:12:07;;;;;;;;;;;8.30;99.90;;;8.51;70.78;101245.91;5073162;28;19927;-70
2021/04/09 04:14:34;;;;;;;;;;;8.30;99.90;;;8.42;70.95;101251.97;5073213;28;19970;-70
2021/04/09 04:17:02;;;;;;;;;;;8.20;99.90;;;8.38;71.53;101254.56;5072978;28;20305;-71
2021/04/09 04:19:30;;;;;;;;;;;8.20;99.90;;;8.44;71.59;101246.75;5074792;28;19920;-70
2021/04/09 04:21:58;;;;;;;;;;;8.20;99.90;;;8.36;72.07;101248.41;5079829;28;19924;-71
2021/04/09 04:24:25;;;;;;;;;;;8.10;99.90;;;8.34;72.19;101244.88;5079726;28;19924;-70
2021/04/09 04:26:52;;;;;;;;;;;8.10;99.90;;;8.28;72.14;101242.16;5079656;28;19920;-70
2021/04/09 04:29:20;;;;;;;;;;;8.10;99.90;;;8.31;72.53;101240.44;5079538;28;19947;-70
2021/04/09 04:31:47;;;;;;;;;;;8.10;99.90;;;7.45;72.46;101085.84;5079368;28;19928;-70
2021/04/09 04:34:15;;;;;;;;;;;8.10;99.90;;;8.25;72.94;101232.47;5079433;28;20450;-70
2021/04/09 04:36:45;;;;;;;;;;;8.00;99.90;;;8.08;73.62;101227.00;5079630;28;19925;-70
2021/04/09 04:39:13;;;;;;;;;;;7.90;99.90;;;8.15;73.20;101228.81;5079585;28;20416;-70
2021/04/09 04:41:43;;;;;;;;;;;7.90;99.90;;;8.07;73.71;101224.34;5079513;28;19932;-70
2021/04/09 04:44:10;;;;;;;;;;;7.90;99.90;;;8.08;73.75;101224.34;5079504;28;19928;-70
2021/04/09 04:46:37;;;;;;;;;;;7.90;99.90;;;8.07;74.15;101219.06;5079324;28;19927;-70
2021/04/09 04:49:06;;;;;;;;;;;7.80;99.90;;;8.10;74.39;101217.34;5079503;28;20407;-70
2021/04/09 04:51:34;;;;;;;;;;;7.90;99.90;;;8.03;73.96;101220.75;5079503;28;19966;-70
2021/04/09 04:54:02;;;;;;;;;;;7.80;99.90;;;8.08;74.50;101229.63;5079566;28;19920;-70
2021/04/09 04:56:29;;;;;;;;;;;7.80;99.90;;;8.08;74.24;101224.34;5079285;28;19968;-70
2021/04/09 04:58:56;;;;;;;;;;;7.90;99.90;;;8.16;74.20;101219.16;5079579;28;19924;-70
2021/04/09 05:01:24;;;;;;;;;;;7.90;99.90;;;8.00;74.27;101210.22;5079469;28;20308;-70
2021/04/09 05:03:53;;;;;;;;;;;7.90;99.90;;;8.15;74.81;101223.53;5079469;28;19924;-70
2021/04/09 05:06:20;;;;;;;;;;;7.90;99.90;;;8.16;74.37;101225.34;5079324;28;19920;-71
2021/04/09 05:08:47;;;;;;;;;;;7.90;99.90;;;8.19;74.37;101224.47;5079047;28;19966;-71
2021/04/09 05:11:15;;;;;;;;;;;8.00;99.90;;;8.15;74.34;101218.28;5079019;28;20381;-70
2021/04/09 05:13:43;;;;;;;;;;;7.90;99.90;;;8.19;73.91;101214.81;5079261;28;19924;-70
2021/04/09 05:16:10;;;;;;;;;;;8.00;99.90;;;8.22;73.54;101208.69;5077984;28;19920;-70
2021/04/09 05:18:37;;;;;;;;;;;8.00;99.90;;;8.27;73.88;101212.28;5079249;28;19929;-70
2021/04/09 05:21:06;;;;;;;;;;;8.00;99.90;;;8.10;73.66;101182.22;5079150;28;20284;-70
2021/04/09 05:23:33;;;;;;;;;;;8.00;99.90;;;8.23;74.12;101209.59;5079162;28;19925;-70
2021/04/09 05:26:01;;;;;;;;;;;8.00;99.90;;;8.25;74.46;101202.59;5077861;28;20313;-70
2021/04/09 05:28:29;;;;;;;;;;;8.00;99.90;;;8.33;74.03;101209.72;5077530;28;19951;-70
2021/04/09 05:30:56;;;;;;;;;;;8.10;99.90;;;8.37;74.26;101213.25;5077660;28;19962;-70
2021/04/09 05:33:24;;;;;;;;;;;8.10;99.90;;;8.31;74.29;101208.81;5074248;28;20011;-70
2021/04/09 05:35:52;;;;;;;;;;;8.10;99.90;;;8.39;74.32;101211.53;5075707;28;19989;-71
2021/04/09 05:38:19;;;;;;;;;;;8.20;99.90;;;8.43;74.16;101208.94;5075555;28;19932;-70
2021/04/09 05:40:46;;;;;;;;;;;8.20;99.90;;;8.43;74.30;101208.94;5075474;28;19955;-71
2021/04/09 05:43:13;;;;;;;;;;;8.20;99.90;;;8.29;74.82;101193.84;5075587;28;20366;-70
2021/04/09 05:45:42;;;;;;;;;;;8.20;99.90;;;8.46;74.95;101219.50;5075758;28;19962;-70
2021/04/09 05:48:09;;;;;;;;;;;8.20;99.90;;;8.46;74.93;101214.22;5075589;28;19924;-70
2021/04/09 05:50:37;;;;;;;;;;;8.20;99.90;;;8.51;75.04;101222.19;5075445;28;19920;-70
2021/04/09 05:53:04;;;;;;;;;;;8.20;99.90;;;8.61;74.83;101229.31;5075301;28;19924;-70
2021/04/09 05:55:31;;;;;;;;;;;8.30;99.90;;;8.66;74.83;101222.31;5075274;28;19920;-70
2021/04/09 05:57:59;;;;;;;;;;;8.40;99.90;;;8.65;74.52;101212.66;5074286;28;20423;-71
2021/04/09 06:00:26;;;;;;;;;;;8.50;99.90;;;8.70;74.54;101224.13;5075484;28;20325;-70
2021/04/09 06:02:54;;;;;;;;;;;8.50;99.90;;;8.61;74.28;101209.13;5075353;28;19928;-71
2021/04/09 06:05:22;;;;;;;;;;;8.50;99.90;;;8.67;74.80;101214.44;5075147;28;20324;-70
2021/04/09 06:07:55;;;;;;;;;;;8.50;99.90;;;8.63;74.60;101209.13;5075052;28;19963;-71
2021/04/09 06:10:23;;;;;;;;;;;8.40;99.90;;;8.42;75.40;101188.72;5075229;28;19920;-71
2021/04/09 06:12:51;;;;;;;;;;;8.40;99.90;;;8.59;75.52;101213.50;5075101;28;19924;-70
2021/04/09 06:15:19;;;;;;;;;;;8.40;99.90;;;8.62;75.38;101226.69;5075105;28;19965;-70
2021/04/09 06:17:46;;;;;;;;;;;8.40;99.90;;;8.68;75.22;101204.78;5075009;28;19924;-70
2021/04/09 06:20:15;;;;;;;;;;;8.40;99.90;;;8.67;75.47;101208.28;5073983;28;20293;-70
2021/04/09 06:22:42;;;;;;;;;;;8.50;99.90;;;8.30;75.88;101129.75;5075070;28;19924;-70
2021/04/09 06:25:10;;;;;;;;;;;8.50;99.90;;;8.76;75.93;101208.34;5074957;28;19920;-71
2021/04/09 06:27:38;;;;;;;;;;;8.50;99.90;;;8.72;76.30;101210.09;5074743;28;19955;-70
2021/04/09 06:30:06;;;;;;;;;;;8.50;99.90;;;8.70;75.89;101180.19;5074448;28;19955;-70
2021/04/09 06:32:33;;;;;;;;;;;8.60;99.90;;;8.90;76.31;101215.50;5074744;28;19924;-70
2021/04/09 06:35:00;;;;;;;;;;;8.70;99.90;;;8.90;75.79;101206.72;5074296;28;20011;-70
2021/04/09 06:37:29;;;;;;;;;;;8.70;99.90;;;8.98;76.01;101210.31;5074442;28;19959;-70
2021/04/09 06:39:56;;;;;;;;;;;8.70;99.90;;;9.11;75.83;101212.16;5074649;28;19920;-70
2021/04/09 06:42:23;;;;;;;;;;;8.80;99.90;;;8.96;76.34;101218.19;5074177;28;19978;-70
2021/04/09 06:44:51;;;;;;;;;;;8.80;99.90;;;9.02;76.50;101197.13;5074273;28;19927;-70
2021/04/09 06:47:19;;;;;;;;;;;8.80;99.90;;;9.09;76.13;101249.09;5074284;28;19959;-71
2021/04/09 06:49:47;;;;;;;;;;;8.90;99.90;;;9.18;76.24;101211.31;5074332;28;20006;-70
2021/04/09 06:52:14;;;;;;;;;;;8.90;99.90;;;9.22;76.16;101218.38;5073984;28;20049;-70
2021/04/09 06:54:43;;;;;;;;;;;9.00;99.90;;;9.13;76.08;101210.41;5073991;28;19990;-70
2021/04/09 06:57:11;;;;;;;;;;;9.00;99.90;;;8.71;76.53;101121.28;5074117;28;19920;-71
2021/04/09 06:59:41;;;;;;;;;;;9.00;99.90;;;9.35;76.34;101222.84;5073919;28;19920;-70
2021/04/09 07:02:13;;;;;;;;;;;9.10;99.90;;;9.46;76.18;101218.53;5074021;28;19931;-70
2021/04/09 07:04:40;;;;;;;;;;;9.20;99.90;;;9.53;76.15;101222.97;5073960;28;19928;-70
2021/04/09 07:07:10;;;;;;;;;;;9.30;99.90;;;9.53;76.09;101217.69;5073922;28;19971;-70
2021/04/09 07:09:38;;;;;;;;;;;9.30;99.90;;;9.54;76.17;101221.22;5072508;28;19939;-70
2021/04/09 07:12:07;;;;;;;;;;;9.30;99.90;;;9.58;76.39;101223.88;5073807;28;20431;-70
2021/04/09 07:14:47;;;;;;;;;;;9.30;99.90;;;9.59;76.50;101223.00;5073614;28;19978;-70
2021/04/09 07:17:22;;;;;;;;;;;9.40;99.90;;;9.71;76.34;101217.78;5073727;28;20491;-70
2021/04/09 07:20:19;;;;;;;;;;;9.40;99.90;;;9.67;76.21;101216.00;5073887;28;19927;-70
2021/04/09 07:22:51;;;;;;;;;;;9.40;99.90;;;9.44;76.22;101178.03;5070549;28;19920;-70
2021/04/09 07:25:20;;;;;;;;;;;9.40;99.90;;;9.69;76.50;101219.53;5073300;28;20358;-71
2021/04/09 07:27:50;;;;;;;;;;;9.50;99.90;;;9.58;76.27;101191.31;5073599;28;19966;-71
2021/04/09 07:30:19;;;;;;;;;;;9.50;99.90;;;9.84;76.69;101211.69;5073513;28;19927;-70
2021/04/09 07:32:46;;;;;;;;;;;9.60;99.90;;;9.98;76.64;101211.72;5073597;28;20329;-71
2021/04/09 07:35:15;;;;;;;;;;;9.70;99.90;;;9.96;75.66;101177.38;5072090;28;20374;-70
2021/04/09 07:37:54;;;;;;;;;;;9.90;99.90;;;10.32;75.01;101212.72;5073535;28;19920;-70
2021/04/09 07:40:26;;;;;;;;;;;10.10;99.90;;;10.60;74.29;101212.78;5073624;28;19925;-70
2021/04/09 07:42:55;;;;;;;;;;;10.30;99.90;;;10.80;73.14;101220.75;5073404;28;19924;-70
2021/04/09 07:45:25;;;;;;;;;;;10.60;99.90;;;11.04;72.60;101223.38;5073101;28;19925;-70
2021/04/09 07:47:57;;;;;;;;;;;10.80;99.90;;;11.33;71.78;101236.56;5073180;28;19924;-70
2021/04/09 07:50:36;;;;;;;;;;;11.00;99.90;;;11.59;70.52;101218.84;5072222;28;19921;-71
2021/04/09 07:53:05;;;;;;;;;;;11.30;99.90;;;11.79;69.18;101220.56;5073405;28;20052;-70
2021/04/09 07:55:34;;;;;;;;;;;11.60;99.90;;;11.87;68.86;101222.31;5072526;28;20438;-70
2021/04/09 07:58:14;;;;;;;;;;;11.60;99.90;;;12.13;67.90;101209.81;5073443;28;19927;-70
2021/04/09 08:00:41;;;;;;;;;;;11.90;99.90;;;12.24;67.33;101218.59;5073120;28;19924;-70
2021/04/09 08:03:08;;;;;;;;;;;12.00;99.90;;;12.56;67.10;101220.16;5073246;28;20293;-71
2021/04/09 08:05:36;;;;;;;;;;;12.30;99.90;;;12.59;65.72;101216.59;5073086;28;19924;-71
2021/04/09 08:08:04;;;;;;;;;;;12.40;99.90;;;12.87;65.59;101220.84;5071638;28;20488;-70
2021/04/09 08:10:32;;;;;;;;;;;12.70;99.90;;;12.97;64.86;101216.31;5072776;28;20404;-70
2021/04/09 08:13:02;;;;;;;;;;;12.70;99.90;;;13.13;64.41;101232.13;5072775;28;19925;-70
2021/04/09 08:15:33;;;;;;;;;;;12.90;99.90;;;13.22;64.10;101223.22;5073244;28;20011;-70
2021/04/09 08:18:06;;;;;;;;;;;13.00;99.90;;;13.35;63.70;101222.19;5073232;28;19935;-71
2021/04/09 08:20:35;;;;;;;;;;;13.10;99.90;;;13.14;62.60;101204.66;5071790;28;19930;-71
2021/04/09 08:23:05;;;;;;;;;;;13.10;99.90;;;13.50;63.18;101232.66;5072718;28;20332;-71
2021/04/09 08:25:33;;;;;;;;;;;13.30;99.90;;;13.62;62.68;101237.84;5071666;28;20431;-71
2021/04/09 08:28:01;;;;;;;;;;;13.40;99.90;;;13.61;61.78;101237.88;5072621;28;19928;-71
2021/04/09 08:30:29;;;;;;;;;;;13.40;99.90;;;13.63;61.05;101233.41;5072652;28;19974;-70
2021/04/09 08:32:59;;;;;;;;;;;13.40;99.90;;;13.49;61.21;101234.41;5072731;28;19920;-71
2021/04/09 08:35:27;;;;;;;;;;;13.30;99.90;;;13.48;60.17;101229.13;5072637;28;20423;-70
2021/04/09 08:37:58;;;;;;;;;;;13.30;99.90;;;13.59;61.12;101238.75;5072460;28;19921;-70
2021/04/09 08:40:27;;;;;;;;;;;13.30;99.90;;;13.66;61.00;101236.03;5072629;28;19927;-71
2021/04/09 08:42:55;;;;;;;;;;;13.40;99.90;;;13.64;61.09;101240.47;5072660;28;20427;-71
2021/04/09 08:45:22;;;;;;;;;;;13.40;99.90;;;13.67;60.54;101236.00;5072686;28;20350;-70
2021/04/09 08:47:54;;;;;;;;;;;13.50;99.90;;;13.74;60.19;101239.47;5072655;28;19920;-70
2021/04/09 08:50:24;;;;;;;;;;;13.50;99.90;;;13.78;59.77;101236.75;5071640;28;20329;-70
2021/04/09 08:52:52;;;;;;;;;;;13.50;99.90;;;13.96;58.42;101244.50;5071268;28;19947;-74
2021/04/09 08:55:36;;;;;;;;;;;13.70;99.90;;;13.86;58.61;101231.38;5072789;28;20022;-72
2021/04/09 08:58:14;;;;;;;;;;;13.80;99.90;;;14.16;58.94;101234.53;5072606;28;19924;-70
2021/04/09 09:00:42;;;;;;;;;;;13.90;99.90;;;14.33;58.22;101250.28;5072700;28;19946;-71
2021/04/09 09:03:22;;;;;;;;;;;14.00;99.90;;;14.36;57.04;101247.59;5072437;28;19920;-70
2021/04/09 09:05:57;;;;;;;;;;;14.10;99.90;;;14.13;57.08;101231.03;5073346;28;19920;-70
2021/04/09 09:09:02;;;;;;;;;;;14.10;99.90;;;14.53;57.22;101252.66;5075200;28;19969;-71
2021/04/09 09:11:52;;;;;;;;;;;14.30;99.90;;;14.52;56.67;101254.44;5071379;28;19920;-70
2021/04/09 09:14:40;;;;;;;;;;;14.30;99.90;;;14.69;56.11;101251.53;5076458;28;20010;-70
2021/04/09 09:17:38;;;;;;;;;;;14.40;99.90;;;14.20;56.33;101256.63;5076088;28;20297;-70
2021/04/09 09:20:17;;;;;;;;;;;14.10;99.90;;;14.02;57.18;101225.81;5074637;28;19928;-70
2021/04/09 09:22:50;;;;;;;;;;;14.00;99.90;;;14.16;57.37;101250.47;5076246;28;20404;-70
2021/04/09 09:25:35;;;;;;;;;;;13.90;99.90;;;14.59;57.13;101268.56;5075916;28;19924;-70
2021/04/09 09:28:04;;;;;;;;;;;14.20;99.90;;;14.64;57.61;101272.91;5075763;28;20474;-70
2021/04/09 09:30:36;;;;;;;;;;;14.30;99.90;;;14.44;55.51;101238.56;5075619;28;19921;-70
2021/04/09 09:33:26;;;;;;;;;;;14.40;99.90;;;13.93;56.55;101264.97;5074657;28;20341;-70
2021/04/09 09:35:58;;;;;;;;;;;13.90;99.90;;;13.80;57.48;101237.59;5075689;28;19962;-70
2021/04/09 09:39:01;;;;;;;;;;;13.80;99.90;;;14.03;56.89;101264.81;5075492;28;19920;-70
2021/04/09 09:41:40;;;;;;;;;;;13.80;99.90;;;14.12;56.83;101263.84;5075360;28;20282;-70
2021/04/09 09:44:27;;;;;;;;;;;13.90;99.90;;;13.90;56.44;101252.56;5075608;28;19927;-70
2021/04/09 09:46:56;;;;;;;;;;;13.80;99.90;;;13.86;56.87;101260.63;5075494;28;19927;-70
2021/04/09 09:49:25;;;;;;;;;;;13.70;99.90;;;13.82;57.41;101272.19;5074369;28;19920;-70
2021/04/09 09:51:53;;;;;;;;;;;13.60;99.90;;;13.46;57.95;101241.53;5075548;28;19928;-70
2021/04/09 09:54:22;;;;;;;;;;;13.40;99.90;;;12.95;58.64;101147.28;5075396;28;20443;-70
2021/04/09 09:56:50;;;;;;;;;;;13.40;99.90;;;13.81;57.99;101267.75;5075501;28;19921;-72
2021/04/09 09:59:19;;;;;;;;;;;13.50;99.90;;;13.93;58.12;101252.56;5075415;28;19921;-70
2021/04/09 10:01:50;;;;;;;;;;;13.70;99.90;;;14.13;57.99;101273.59;5075338;28;19924;-70
2021/04/09 10:04:18;;;;;;;;;;;13.80;99.90;;;14.14;57.81;101280.66;5074074;28;19921;-70
2021/04/09 10:06:50;;;;;;;;;;;13.90;99.90;;;13.58;57.46;101164.34;5073910;28;19921;-71
2021/04/09 10:09:29;;;;;;;;;;;14.00;99.90;;;14.56;57.42;101276.56;5075421;28;19921;-70
2021/04/09 10:11:58;;;;;;;;;;;14.20;99.90;;;14.20;56.46;101168.84;5074716;28;20327;-70
2021/04/09 10:14:29;;;;;;;;;;;14.50;99.90;;;14.78;56.05;101257.59;5074869;28;19998;-71
2021/04/09 10:16:58;;;;;;;;;;;14.70;99.90;;;14.81;56.33;101278.84;5074405;28;19974;-70
2021/04/09 10:19:26;;;;;;;;;;;14.60;99.90;;;15.01;57.07;101281.22;5074659;28;19920;-70
2021/04/09 10:21:53;;;;;;;;;;;14.70;99.90;;;15.07;56.26;101290.00;5074929;28;20020;-71
2021/04/09 10:24:37;;;;;;;;;;;14.80;99.90;;;15.21;56.22;101284.44;5074463;28;20470;-70
2021/04/09 10:27:06;;;;;;;;;;;15.00;99.90;;;15.36;55.63;101285.06;5074496;28;20289;-70
2021/04/09 10:29:35;;;;;;;;;;;15.20;99.90;;;15.05;55.23;101256.28;5074455;28;19979;-70
2021/04/09 10:32:05;;;;;;;;;;;15.10;99.90;;;14.92;55.14;101284.03;5074547;28;19928;-70
2021/04/09 10:34:34;;;;;;;;;;;14.80;99.90;;;14.48;55.64;101274.00;5073123;28;19920;-70
2021/04/09 10:37:05;;;;;;;;;;;14.40;99.90;;;14.60;55.81;101283.59;5074439;28;19928;-70
2021/04/09 10:39:32;;;;;;;;;;;14.40;99.90;;;14.61;54.93;101282.72;5074495;28;19987;-70
2021/04/09 10:42:02;;;;;;;;;;;14.40;99.90;;;14.30;55.36;101282.25;5074523;28;19928;-70
2021/04/09 10:44:31;;;;;;;;;;;14.20;99.90;;;14.17;55.82;101272.63;5074597;28;19931;-70
2021/04/09 10:47:00;;;;;;;;;;;14.00;99.90;;;13.98;56.56;101279.97;5074317;28;20336;-70
2021/04/09 10:49:29;;;;;;;;;;;13.90;99.90;;;13.44;57.47;101283.19;5074256;28;19927;-70
2021/04/09 10:51:58;;;;;;;;;;;13.40;99.90;;;13.54;58.06;101276.91;5073985;28;20369;-70
2021/04/09 10:54:27;;;;;;;;;;;13.40;99.90;;;13.78;57.94;101257.16;5074264;28;19926;-70
2021/04/09 10:56:57;;;;;;;;;;;13.70;99.90;;;14.11;57.56;101273.59;5073944;28;20365;-70
2021/04/09 10:59:25;;;;;;;;;;;13.90;99.90;;;14.10;57.04;101266.50;5072491;28;20700;-70
2021/04/09 11:01:54;;;;;;;;;;;14.00;99.90;;;14.48;56.51;101266.91;5072666;28;20381;-70
2021/04/09 11:04:22;;;;;;;;;;;14.20;99.90;;;14.42;56.24;101264.34;5074256;28;19927;-70
2021/04/09 11:06:50;;;;;;;;;;;14.30;99.90;;;14.13;55.33;101260.28;5073916;28;19920;-70
2021/04/09 11:09:19;;;;;;;;;;;14.00;99.90;;;14.38;55.75;101262.63;5073782;28;20362;-70
2021/04/09 11:11:47;;;;;;;;;;;14.20;99.90;;;14.48;54.57;101258.94;5073735;28;19920;-70
2021/04/09 11:14:18;;;;;;;;;;;14.40;99.90;;;14.68;55.94;101261.31;5072327;28;19924;-70
2021/04/09 11:16:54;;;;;;;;;;;14.50;99.90;;;14.97;54.69;101256.41;5073927;28;19928;-71
2021/04/09 11:19:31;;;;;;;;;;;14.80;99.90;;;14.90;54.43;101253.88;5072584;28;19921;-70
2021/04/09 11:21:59;;;;;;;;;;;14.80;99.90;;;15.15;53.79;101256.13;5073629;28;19920;-70
2021/04/09 11:24:30;;;;;;;;;;;15.00;99.90;;;15.15;53.07;101253.47;5072278;28;20017;-70
2021/04/09 11:26:58;;;;;;;;;;;15.00;99.90;;;15.10;53.11;101246.41;5073498;28;19931;-70
2021/04/09 11:29:27;;;;;;;;;;;15.00;99.90;;;15.01;53.02;101250.13;5072744;28;19935;-71
2021/04/09 11:32:13;;;;;;;;;;;14.90;99.90;;;15.16;53.36;101249.88;5073618;28;19931;-70